Terminal Aerodrome Forecast
Issued by NWS Twin Cities, MN

Home | Current Version | Previous Version | Text Only | Print | Product List | Glossary On
Versions: 1 2 3 4 5 6 7 8 9 10 11 12 13 14
000
FTUS43 KMPX 222300
TAFSTC
TAF
KSTC 222336Z 2300/2324 16011KT P6SM SCT030 BKN080
     FM230300 17010KT 6SM -SHRA BR SCT020 OVC040
      TEMPO 2303/2306 4SM SHRA BKN020
     FM230600 20006KT 6SM BR SCT015 BKN050
     FM231000 22004KT 2SM BR FEW010
     FM231400 24008KT P6SM SKC=

USA.gov is the U.S. government's official web portal to all federal, state and local government web resources and services.